Time;durP1;ratioP1;P1;durP2;ratioP2;P2;SDS_P1;SDS_P2;PMS_P1;PMS_P2;Temp;Humidity;BMP_temperature;BMP_pressure;BME280_temperature;BME280_humidity;BME280_pressure;Samples;Min_cycle;Max_cycle;Signal;HPM_P1;HPM_P2
2021/08/19 00:02:09;;;;;;;18.98;14.82;;;16.60;99.90;;;;;;5092702;28;20048;-72
2021/08/19 00:04:34;;;;;;;18.77;14.48;;;16.50;99.90;;;;;;5092061;28;20028;-73
2021/08/19 00:07:00;;;;;;;17.15;15.32;;;16.50;99.90;;;;;;5092453;28;20557;-77
2021/08/19 00:09:25;;;;;;;15.88;14.18;;;16.40;99.90;;;;;;5092750;28;20036;-79
2021/08/19 00:11:51;;;;;;;17.55;15.52;;;16.40;99.90;;;;;;5091693;28;20036;-76
2021/08/19 00:14:16;;;;;;;18.55;16.63;;;16.50;99.90;;;;;;5096715;28;20036;-75
2021/08/19 00:16:42;;;;;;;18.30;16.33;;;16.50;99.90;;;;;;5094910;28;20023;-73
2021/08/19 00:19:08;;;;;;;19.77;15.65;;;16.50;99.90;;;;;;5094471;28;20126;-78
2021/08/19 00:21:33;;;;;;;18.00;16.10;;;16.50;99.90;;;;;;5096427;28;20016;-76
2021/08/19 00:23:59;;;;;;;17.27;14.98;;;16.50;99.90;;;;;;5096278;28;20445;-77
2021/08/19 00:26:25;;;;;;;17.35;15.50;;;16.50;99.90;;;;;;5095986;28;20039;-79
2021/08/19 00:28:50;;;;;;;17.30;15.45;;;16.50;99.90;;;;;;5095971;28;20020;-81
2021/08/19 00:31:17;;;;;;;18.20;15.70;;;16.60;99.90;;;;;;5096626;28;20468;-82
2021/08/19 00:33:43;;;;;;;20.13;16.55;;;16.60;99.90;;;;;;5095481;28;20017;-74
2021/08/19 00:36:09;;;;;;;17.25;14.93;;;16.60;99.90;;;;;;5096444;28;20047;-78
2021/08/19 00:38:34;;;;;;;19.63;15.20;;;16.70;99.90;;;;;;5096227;28;20488;-74
2021/08/19 00:41:00;;;;;;;16.88;15.15;;;16.70;99.90;;;;;;5093944;28;20027;-82
2021/08/19 00:43:25;;;;;;;17.67;15.82;;;16.80;99.90;;;;;;5096405;28;20476;-77
2021/08/19 00:45:51;;;;;;;17.00;15.15;;;16.80;99.90;;;;;;5095814;28;20016;-71
2021/08/19 00:48:17;;;;;;;19.92;15.05;;;16.90;99.90;;;;;;5095429;28;20442;-79
2021/08/19 00:50:44;;;;;;;16.95;14.52;;;16.90;99.90;;;;;;5095558;28;20073;-81
2021/08/19 00:53:10;;;;;;;15.20;13.57;;;16.90;99.90;;;;;;5095969;28;20100;-78
2021/08/19 00:55:36;;;;;;;18.73;14.50;;;16.90;99.90;;;;;;5095189;28;20380;-79
2021/08/19 00:58:01;;;;;;;16.08;14.32;;;16.90;99.90;;;;;;5094423;28;20103;-82
2021/08/19 01:00:27;;;;;;;16.63;14.45;;;17.00;99.90;;;;;;5095642;28;20038;-83
2021/08/19 01:02:57;;;;;;;17.42;15.48;;;17.00;99.90;;;;;;5095230;28;20055;-81
2021/08/19 01:05:26;;;;;;;15.90;14.23;;;17.00;99.90;;;;;;5095911;28;20016;-82
2021/08/19 01:07:51;;;;;;;21.63;14.43;;;17.00;99.90;;;;;;5095077;28;20484;-82
2021/08/19 01:10:17;;;;;;;18.45;14.75;;;17.00;99.90;;;;;;5094373;28;20032;-76
2021/08/19 01:12:46;;;;;;;15.57;13.85;;;17.00;99.90;;;;;;5095502;28;20071;-81
2021/08/19 01:15:13;;;;;;;15.68;14.02;;;17.00;99.90;;;;;;5095273;28;20016;-82
2021/08/19 01:17:39;;;;;;;15.45;13.80;;;17.00;99.90;;;;;;5095601;28;20036;-79
2021/08/19 01:20:06;;;;;;;15.88;13.40;;;17.00;99.90;;;;;;5093828;28;20365;-78
2021/08/19 01:22:32;;;;;;;14.55;11.70;;;17.00;99.90;;;;;;5095073;28;20059;-81
2021/08/19 01:24:58;;;;;;;16.42;13.75;;;17.00;99.90;;;;;;5094543;28;20020;-83
2021/08/19 01:27:24;;;;;;;14.18;12.77;;;17.00;99.90;;;;;;5095449;28;20495;-81
2021/08/19 01:29:51;;;;;;;19.10;13.63;;;17.00;99.90;;;;;;5094415;28;20030;-80
2021/08/19 01:32:18;;;;;;;13.98;12.57;;;17.00;99.90;;;;;;5094094;28;20020;-79
2021/08/19 01:34:44;;;;;;;15.48;12.40;;;17.00;99.90;;;;;;5094786;28;20028;-83
2021/08/19 01:37:11;;;;;;;18.17;12.95;;;16.90;99.90;;;;;;5093167;28;20039;-71
2021/08/19 01:39:37;;;;;;;20.27;13.23;;;16.70;99.90;;;;;;5095086;28;20020;-81
2021/08/19 01:42:03;;;;;;;16.00;12.50;;;16.60;99.90;;;;;;5093508;28;20081;-83
2021/08/19 01:44:29;;;;;;;13.50;12.10;;;16.50;99.90;;;;;;5094517;28;20028;-76
2021/08/19 01:47:02;;;;;;;15.02;13.20;;;16.40;99.90;;;;;;5094728;28;20024;-83
2021/08/19 01:49:29;;;;;;;15.75;12.90;;;16.40;99.90;;;;;;5093597;28;20111;-75
2021/08/19 01:51:55;;;;;;;14.10;12.10;;;16.40;99.90;;;;;;5093770;28;20103;-74
2021/08/19 01:54:23;;;;;;;16.27;12.50;;;16.40;99.90;;;;;;5094622;28;20103;-77
2021/08/19 01:56:49;;;;;;;18.40;12.27;;;16.40;99.90;;;;;;5094025;28;20020;-80
2021/08/19 01:59:14;;;;;;;13.95;12.00;;;16.50;99.90;;;;;;5094553;28;20039;-76
2021/08/19 02:01:40;;;;;;;15.52;13.30;;;16.50;99.90;;;;;;5094671;28;20016;-79
2021/08/19 02:04:06;;;;;;;14.40;12.18;;;16.60;99.90;;;;;;5092496;28;20027;-71
2021/08/19 02:06:32;;;;;;;18.80;13.25;;;16.70;99.90;;;;;;5094315;28;20492;-72
2021/08/19 02:08:58;;;;;;;18.25;14.88;;;16.70;99.90;;;;;;5094100;28;20017;-75
2021/08/19 02:11:24;;;;;;;21.35;13.75;;;16.80;99.90;;;;;;5093918;28;20028;-79
2021/08/19 02:13:50;;;;;;;23.77;13.60;;;16.80;99.90;;;;;;5094063;28;20042;-73
2021/08/19 02:16:16;;;;;;;13.88;12.35;;;16.90;99.90;;;;;;5094093;28;20028;-78
2021/08/19 02:18:41;;;;;;;21.38;14.98;;;16.90;99.90;;;;;;5093191;28;20036;-72
2021/08/19 02:21:07;;;;;;;19.02;13.55;;;16.90;99.90;;;;;;5094102;28;20028;-73
2021/08/19 02:23:32;;;;;;;16.95;14.32;;;17.00;99.90;;;;;;5093032;28;20051;-81
2021/08/19 02:25:58;;;;;;;17.77;14.05;;;17.00;99.90;;;;;;5093162;28;20085;-76
2021/08/19 02:28:24;;;;;;;15.55;12.80;;;17.00;99.90;;;;;;5094035;28;20069;-79
2021/08/19 02:30:49;;;;;;;15.90;14.18;;;17.10;99.90;;;;;;5092576;28;20016;-80
2021/08/19 02:33:15;;;;;;;19.00;14.95;;;17.10;99.90;;;;;;5093595;28;20024;-77
2021/08/19 02:35:40;;;;;;;18.55;15.77;;;17.10;99.90;;;;;;5093533;28;20019;-74
2021/08/19 02:38:06;;;;;;;17.20;13.52;;;17.20;99.90;;;;;;5094144;28;20434;-81
2021/08/19 02:40:35;;;;;;;20.27;15.35;;;17.20;99.90;;;;;;5093211;28;20024;-77
2021/08/19 02:43:01;;;;;;;17.38;15.60;;;17.20;99.90;;;;;;5093696;28;20107;-80
2021/08/19 02:45:26;;;;;;;17.77;15.88;;;17.20;99.90;;;;;;5093914;28;20052;-82
2021/08/19 02:47:52;;;;;;;18.83;16.00;;;17.20;99.90;;;;;;5092898;28;20087;-80
2021/08/19 02:50:18;;;;;;;20.33;16.30;;;17.30;99.90;;;;;;5093677;28;20020;-75
2021/08/19 02:52:43;;;;;;;21.83;16.00;;;17.30;99.90;;;;;;5093424;28;20043;-79
2021/08/19 02:55:10;;;;;;;21.30;18.08;;;17.30;99.90;;;;;;5093295;28;20043;-82
2021/08/19 02:57:35;;;;;;;19.98;17.10;;;17.40;99.90;;;;;;5093853;28;20051;-83
2021/08/19 03:00:01;;;;;;;24.83;16.73;;;17.40;99.90;;;;;;5093127;28;20454;-75
2021/08/19 03:02:27;;;;;;;19.15;16.45;;;17.40;99.90;;;;;;5093439;28;20028;-74
2021/08/19 03:04:52;;;;;;;20.95;16.83;;;17.50;99.90;;;;;;5093267;28;20083;-80
2021/08/19 03:07:18;;;;;;;21.52;17.40;;;17.50;99.90;;;;;;5092712;28;20103;-83
2021/08/19 03:09:44;;;;;;;20.45;18.30;;;17.50;99.90;;;;;;5093259;28;20028;-82
2021/08/19 03:12:10;;;;;;;26.58;19.80;;;17.50;99.90;;;;;;5093306;28;20414;-82
2021/08/19 03:14:36;;;;;;;21.33;17.65;;;17.50;99.90;;;;;;5091568;28;20357;-82
2021/08/19 03:17:02;;;;;;;23.52;19.10;;;17.50;99.90;;;;;;5093006;28;20028;-82
2021/08/19 03:19:28;;;;;;;21.58;18.83;;;17.50;99.90;;;;;;5093217;28;20023;-82
2021/08/19 03:21:54;;;;;;;22.65;18.98;;;17.60;99.90;;;;;;5092343;28;20020;-82
2021/08/19 03:24:19;;;;;;;21.30;19.08;;;17.60;99.90;;;;;;5093380;28;20334;-82
2021/08/19 03:26:45;;;;;;;22.08;19.23;;;17.60;99.90;;;;;;5093095;28;20020;-79
2021/08/19 03:29:11;;;;;;;26.60;21.25;;;17.60;99.90;;;;;;5092712;28;20380;-78
2021/08/19 03:31:37;;;;;;;22.95;19.73;;;17.60;99.90;;;;;;5093344;28;20028;-82
2021/08/19 03:34:02;;;;;;;23.85;20.65;;;17.60;99.90;;;;;;5093033;28;20377;-80
2021/08/19 03:36:28;;;;;;;23.88;21.38;;;17.60;99.90;;;;;;5092619;28;20101;-83
2021/08/19 03:38:53;;;;;;;24.73;19.73;;;17.60;99.90;;;;;;5092587;28;20388;-83
2021/08/19 03:41:19;;;;;;;23.27;19.20;;;17.60;99.90;;;;;;5093155;28;20028;-82
2021/08/19 03:43:46;;;;;;;21.35;18.60;;;17.60;99.90;;;;;;5090864;28;20354;-82
2021/08/19 03:46:12;;;;;;;23.33;18.90;;;17.60;99.90;;;;;;5091780;28;20111;-83
2021/08/19 03:48:37;;;;;;;21.05;17.63;;;17.60;99.90;;;;;;5094895;28;20031;-82
2021/08/19 03:51:03;;;;;;;18.98;16.70;;;17.60;99.90;;;;;;5096119;28;20054;-77
2021/08/19 03:53:29;;;;;;;24.27;17.15;;;17.50;99.90;;;;;;5097046;28;20081;-76
2021/08/19 03:55:55;;;;;;;20.25;15.98;;;17.50;99.90;;;;;;5096796;28;20027;-75
2021/08/19 03:58:21;;;;;;;19.92;15.82;;;17.50;99.90;;;;;;5096358;28;20117;-79
2021/08/19 04:00:48;;;;;;;18.08;15.98;;;17.50;99.90;;;;;;5095327;28;20028;-78
2021/08/19 04:03:14;;;;;;;19.13;15.75;;;17.50;99.90;;;;;;5097066;28;20020;-75
2021/08/19 04:05:40;;;;;;;16.50;14.40;;;17.50;99.90;;;;;;5096267;28;20012;-73
2021/08/19 04:08:06;;;;;;;18.70;15.20;;;17.50;99.90;;;;;;5096768;28;20032;-75
2021/08/19 04:10:32;;;;;;;21.52;13.93;;;17.50;99.90;;;;;;5095988;28;20024;-77
2021/08/19 04:12:57;;;;;;;16.63;14.68;;;17.50;99.90;;;;;;5095238;28;20044;-80
2021/08/19 04:15:22;;;;;;;15.52;13.65;;;17.50;99.90;;;;;;5095409;28;20058;-75
2021/08/19 04:17:52;;;;;;;18.38;14.20;;;17.40;99.90;;;;;;5095785;28;20088;-77
2021/08/19 04:20:17;;;;;;;18.50;13.40;;;17.40;99.90;;;;;;5096596;28;20101;-75
2021/08/19 04:22:43;;;;;;;14.18;12.73;;;17.40;99.90;;;;;;5096340;28;20074;-77
2021/08/19 04:25:09;;;;;;;17.58;12.63;;;17.40;99.90;;;;;;5095911;28;20105;-77
2021/08/19 04:27:34;;;;;;;16.08;12.25;;;17.40;99.90;;;;;;5096479;28;20020;-80
2021/08/19 04:30:00;;;;;;;15.25;13.52;;;17.30;99.90;;;;;;5096270;28;20028;-82
2021/08/19 04:32:26;;;;;;;14.20;12.70;;;17.30;99.90;;;;;;5095874;28;20493;-83
2021/08/19 04:34:51;;;;;;;15.30;12.15;;;17.30;99.90;;;;;;5095998;28;20020;-80
2021/08/19 04:37:17;;;;;;;16.20;12.07;;;17.30;99.90;;;;;;5095011;28;20031;-78
2021/08/19 04:39:42;;;;;;;17.30;13.50;;;17.30;99.90;;;;;;5095560;28;20024;-83
2021/08/19 04:42:08;;;;;;;16.40;12.85;;;17.30;99.90;;;;;;5094949;28;20026;-83
2021/08/19 04:44:33;;;;;;;14.07;11.73;;;17.30;99.90;;;;;;5096368;28;20085;-81
2021/08/19 04:46:59;;;;;;;15.73;11.65;;;17.30;99.90;;;;;;5095143;28;20017;-81
2021/08/19 04:49:25;;;;;;;15.52;11.70;;;17.30;99.90;;;;;;5096196;28;20348;-75
2021/08/19 04:51:50;;;;;;;13.00;11.27;;;17.30;99.90;;;;;;5095929;28;20060;-72
2021/08/19 04:54:16;;;;;;;14.27;12.00;;;17.30;99.90;;;;;;5095340;28;20024;-82
2021/08/19 04:56:41;;;;;;;15.60;11.68;;;17.30;99.90;;;;;;5095944;28;20048;-80
2021/08/19 04:59:09;;;;;;;13.90;11.48;;;17.30;99.90;;;;;;5094659;28;20040;-82
2021/08/19 05:01:35;;;;;;;14.52;11.80;;;17.30;99.90;;;;;;5093929;28;20024;-83
2021/08/19 05:04:01;;;;;;;16.33;12.32;;;17.30;99.90;;;;;;5094648;28;20023;-81
2021/08/19 05:06:28;;;;;;;13.90;12.13;;;17.30;99.90;;;;;;5095805;28;20131;-83
2021/08/19 05:08:55;;;;;;;16.48;12.77;;;17.30;99.90;;;;;;5095276;28;20058;-77
2021/08/19 05:11:22;;;;;;;16.75;12.18;;;17.30;99.90;;;;;;5094795;28;20020;-76
2021/08/19 05:13:48;;;;;;;14.55;12.95;;;17.30;99.90;;;;;;5094327;28;20048;-72
2021/08/19 05:16:13;;;;;;;18.38;13.65;;;17.30;99.90;;;;;;5095655;28;20484;-77
2021/08/19 05:18:40;;;;;;;15.38;13.70;;;17.30;99.90;;;;;;5095532;28;20040;-73
2021/08/19 05:21:06;;;;;;;15.05;13.10;;;17.30;99.90;;;;;;5095005;28;20095;-80
2021/08/19 05:23:33;;;;;;;15.63;12.40;;;17.30;99.90;;;;;;5090649;28;20062;-81
2021/08/19 05:25:58;;;;;;;15.00;12.80;;;17.30;99.90;;;;;;5095180;28;20554;-77
2021/08/19 05:28:24;;;;;;;15.48;13.88;;;17.40;99.90;;;;;;5094717;28;20067;-80
2021/08/19 05:30:50;;;;;;;18.17;12.75;;;17.40;99.90;;;;;;5094366;28;20020;-79
2021/08/19 05:33:15;;;;;;;17.65;14.32;;;17.40;99.90;;;;;;5094311;28;20028;-83
2021/08/19 05:35:41;;;;;;;16.73;13.70;;;17.50;99.90;;;;;;5091809;28;20495;-74
2021/08/19 05:38:06;;;;;;;22.17;15.85;;;17.50;99.90;;;;;;5093404;28;20043;-83
2021/08/19 05:40:33;;;;;;;15.43;13.80;;;17.50;99.90;;;;;;5094874;28;20055;-83
2021/08/19 05:42:58;;;;;;;21.15;15.18;;;17.50;99.90;;;;;;5094169;28;20120;-79
2021/08/19 05:45:24;;;;;;;18.65;15.82;;;17.60;99.90;;;;;;5095127;28;20016;-81
2021/08/19 05:47:49;;;;;;;22.33;16.52;;;17.60;99.90;;;;;;5093621;28;20020;-84
2021/08/19 05:50:15;;;;;;;21.30;17.52;;;17.70;99.90;;;;;;5094302;28;20369;-83
2021/08/19 05:52:40;;;;;;;22.85;17.42;;;17.70;99.90;;;;;;5094729;28;20422;-73
2021/08/19 05:55:07;;;;;;;19.55;16.50;;;17.70;99.90;;;;;;5087230;28;20023;-83
2021/08/19 05:57:32;;;;;;;24.27;17.83;;;17.70;99.90;;;;;;5086474;28;20035;-80
2021/08/19 05:59:58;;;;;;;23.52;17.30;;;17.70;99.90;;;;;;5096432;28;20027;-79
2021/08/19 06:02:23;;;;;;;21.90;19.60;;;17.60;99.90;;;;;;5098804;28;20119;-73
2021/08/19 06:04:49;;;;;;;25.77;19.20;;;17.70;99.90;;;;;;5093539;28;20032;-72
2021/08/19 06:07:14;;;;;;;22.55;17.85;;;17.70;99.90;;;;;;5092611;28;20023;-70
2021/08/19 06:09:40;;;;;;;26.92;17.83;;;17.70;99.90;;;;;;5073950;28;20364;-80
2021/08/19 06:12:06;;;;;;;24.30;18.13;;;17.70;99.90;;;;;;5079362;28;20097;-79
2021/08/19 06:14:32;;;;;;;23.27;17.38;;;17.70;99.90;;;;;;5090993;28;20078;-74
2021/08/19 06:16:58;;;;;;;21.45;16.60;;;17.70;99.90;;;;;;5077070;28;20020;-72
2021/08/19 06:19:23;;;;;;;23.55;17.38;;;17.80;99.90;;;;;;5080489;28;20385;-70
2021/08/19 06:21:49;;;;;;;22.23;16.30;;;17.80;99.90;;;;;;5086150;28;20031;-77
2021/08/19 06:24:15;;;;;;;19.85;15.43;;;17.80;99.90;;;;;;5092477;28;20085;-73
2021/08/19 06:26:41;;;;;;;24.40;15.75;;;17.80;99.90;;;;;;5092770;28;20027;-77
2021/08/19 06:29:07;;;;;;;19.85;15.73;;;17.80;99.90;;;;;;5094496;28;20051;-72
2021/08/19 06:31:32;;;;;;;18.73;14.13;;;17.80;99.90;;;;;;5092386;28;20368;-79
2021/08/19 06:33:58;;;;;;;18.70;14.90;;;17.90;99.90;;;;;;5086218;28;20024;-74
2021/08/19 06:36:23;;;;;;;24.48;14.48;;;17.90;99.90;;;;;;5086213;28;20076;-73
2021/08/19 06:38:52;;;;;;;19.05;15.88;;;17.90;99.90;;;;;;5093046;28;20541;-82
2021/08/19 06:41:20;;;;;;;18.05;15.43;;;18.00;99.90;;;;;;5088200;28;20028;-72
2021/08/19 06:43:46;;;;;;;24.98;16.38;;;18.00;99.90;;;;;;5092338;28;20089;-73
2021/08/19 06:46:12;;;;;;;19.77;16.92;;;18.00;99.90;;;;;;5085168;28;20491;-85
2021/08/19 06:48:38;;;;;;;17.83;14.98;;;18.00;99.90;;;;;;5092083;28;20107;-75
2021/08/19 06:51:03;;;;;;;19.75;14.80;;;18.00;99.90;;;;;;5108771;28;20358;-73
2021/08/19 06:53:29;;;;;;;25.25;15.55;;;18.10;99.90;;;;;;5089621;28;20446;-75
2021/08/19 06:55:54;;;;;;;26.20;15.73;;;18.10;99.90;;;;;;5092295;28;20024;-83
2021/08/19 06:58:20;;;;;;;22.35;15.82;;;18.10;99.90;;;;;;5090373;28;20035;-73
2021/08/19 07:00:45;;;;;;;20.92;16.50;;;18.10;99.90;;;;;;5072968;28;20028;-76
2021/08/19 07:03:15;;;;;;;24.42;17.60;;;18.10;99.90;;;;;;5072505;28;20021;-87
2021/08/19 07:05:45;;;;;;;21.05;15.18;;;18.10;99.90;;;;;;5072341;28;20366;-79
2021/08/19 07:08:12;;;;;;;17.88;15.70;;;18.10;99.90;;;;;;5071936;28;20473;-82
2021/08/19 07:10:39;;;;;;;19.92;15.57;;;18.10;99.90;;;;;;5077102;28;20017;-82
2021/08/19 07:13:05;;;;;;;18.88;15.52;;;18.10;99.90;;;;;;5088510;28;20052;-87
2021/08/19 07:15:31;;;;;;;23.15;16.50;;;18.10;99.90;;;;;;5074369;28;20043;-74
2021/08/19 07:17:57;;;;;;;24.90;17.67;;;18.10;99.90;;;;;;5086787;28;20059;-81
2021/08/19 07:20:23;;;;;;;21.75;16.13;;;18.10;99.90;;;;;;5091882;28;20473;-80
2021/08/19 07:22:48;;;;;;;25.38;17.13;;;18.10;99.90;;;;;;5079741;28;20546;-75
2021/08/19 07:25:15;;;;;;;20.13;16.52;;;18.10;99.90;;;;;;5083900;28;20489;-82
2021/08/19 07:27:42;;;;;;;21.45;15.80;;;18.10;99.90;;;;;;5071067;28;20399;-83
2021/08/19 07:30:12;;;;;;;23.58;16.77;;;18.10;99.90;;;;;;5073621;28;20096;-90
2021/08/19 07:36:45;;;;;;;22.30;18.10;;;18.20;99.90;;;;;;5082181;28;20057;-88
2021/08/19 07:39:10;;;;;;;27.73;17.45;;;18.20;99.90;;;;;;5092144;28;20119;-87
2021/08/19 07:42:00;;;;;;;23.45;17.48;;;18.20;99.90;;;;;;5080697;28;20123;-87
2021/08/19 07:44:25;;;;;;;21.15;16.85;;;18.20;99.90;;;;;;5082460;28;20024;-85
2021/08/19 07:46:51;;;;;;;23.45;16.88;;;18.20;99.90;;;;;;5086860;28;20043;-83
2021/08/19 07:49:20;;;;;;;23.38;17.92;;;18.20;99.90;;;;;;5089852;28;20032;-74
2021/08/19 07:51:46;;;;;;;21.48;16.95;;;18.30;99.90;;;;;;5091323;28;20066;-75
2021/08/19 07:54:11;;;;;;;21.77;15.80;;;18.40;99.90;;;;;;5092784;28;20036;-73
2021/08/19 07:56:37;;;;;;;21.73;15.65;;;18.50;99.90;;;;;;5092184;28;20408;-72
2021/08/19 07:59:02;;;;;;;20.98;14.90;;;18.60;99.90;;;;;;5092268;28;20067;-74
2021/08/19 08:01:28;;;;;;;23.38;17.75;;;18.70;99.90;;;;;;5092556;28;20069;-72
2021/08/19 08:03:53;;;;;;;20.00;16.27;;;18.70;99.90;;;;;;5092030;28;20373;-75
2021/08/19 08:06:19;;;;;;;21.77;15.60;;;18.70;99.90;;;;;;5091316;28;20020;-76
2021/08/19 08:08:45;;;;;;;22.30;17.17;;;18.60;99.90;;;;;;5091261;28;20028;-78
2021/08/19 08:11:10;;;;;;;22.38;16.17;;;18.50;99.90;;;;;;5091845;28;20024;-76
2021/08/19 08:13:36;;;;;;;16.00;13.68;;;18.50;99.90;;;;;;5092319;28;20166;-76
2021/08/19 08:16:02;;;;;;;18.63;14.43;;;18.50;99.90;;;;;;5092251;28;20032;-82
2021/08/19 08:18:28;;;;;;;17.77;14.82;;;18.50;99.90;;;;;;5091859;28;20047;-81
2021/08/19 08:20:57;;;;;;;16.33;14.45;;;18.50;99.90;;;;;;5091039;28;20024;-74
2021/08/19 08:23:22;;;;;;;19.25;14.77;;;18.30;99.90;;;;;;5092802;28;20017;-75
2021/08/19 08:25:48;;;;;;;15.73;13.05;;;18.30;99.90;;;;;;5091533;28;20020;-75
2021/08/19 08:28:17;;;;;;;17.63;14.43;;;18.30;99.90;;;;;;5092510;28;20024;-79
2021/08/19 08:30:45;;;;;;;16.90;13.55;;;18.30;99.90;;;;;;5091385;28;20024;-76
2021/08/19 08:33:13;;;;;;;17.42;13.13;;;18.30;99.90;;;;;;5093376;28;20061;-79
2021/08/19 08:35:39;;;;;;;16.02;14.00;;;18.30;99.90;;;;;;5095172;28;20021;-72
2021/08/19 08:38:14;;;;;;;14.32;12.73;;;18.30;99.90;;;;;;5095369;28;20361;-72
2021/08/19 08:40:42;;;;;;;17.80;13.52;;;18.30;99.90;;;;;;5094786;28;20093;-75
2021/08/19 08:43:09;;;;;;;15.07;12.82;;;18.40;99.90;;;;;;5094819;28;20016;-79
2021/08/19 08:45:39;;;;;;;16.02;13.45;;;18.40;99.90;;;;;;5095487;28;20016;-78
2021/08/19 08:48:10;;;;;;;17.13;13.55;;;18.50;99.90;;;;;;5095840;28;20480;-76
2021/08/19 08:50:38;;;;;;;20.33;12.95;;;18.50;99.90;;;;;;5096042;28;20162;-82
2021/08/19 08:53:04;;;;;;;20.45;13.63;;;18.50;99.90;;;;;;5095186;28;20464;-79
2021/08/19 08:55:30;;;;;;;18.10;13.82;;;18.50;99.90;;;;;;5096061;28;20020;-76
2021/08/19 08:57:58;;;;;;;19.05;12.98;;;18.50;99.90;;;;;;5095426;28;20066;-82
2021/08/19 09:00:24;;;;;;;18.25;12.73;;;18.60;99.90;;;;;;5095011;28;20027;-76
2021/08/19 09:02:49;;;;;;;16.05;12.27;;;18.70;99.90;;;;;;5095421;28;20024;-82
2021/08/19 09:05:24;;;;;;;16.33;12.77;;;18.80;99.90;;;;;;5095897;28;20032;-81
2021/08/19 09:07:58;;;;;;;17.98;12.15;;;18.90;99.90;;;;;;5095010;28;20030;-80
2021/08/19 09:10:32;;;;;;;18.70;13.68;;;19.00;99.90;;;;;;5095529;28;20097;-78
2021/08/19 09:13:09;;;;;;;17.13;12.55;;;19.00;99.90;;;;;;5093125;28;20444;-77
2021/08/19 09:15:35;;;;;;;14.70;11.55;;;18.80;99.90;;;;;;5094274;28;20107;-73
2021/08/19 09:18:02;;;;;;;13.48;10.07;;;18.70;99.90;;;;;;5095132;28;20174;-82
2021/08/19 09:20:43;;;;;;;14.25;10.85;;;18.70;99.90;;;;;;5094693;28;20020;-82
2021/08/19 09:23:10;;;;;;;15.27;10.63;;;18.70;99.90;;;;;;5094115;28;20031;-83
2021/08/19 09:25:39;;;;;;;13.63;9.90;;;18.80;99.90;;;;;;5095636;28;20161;-80
2021/08/19 09:28:17;;;;;;;18.42;11.90;;;18.80;99.90;;;;;;5094441;28;20039;-84
2021/08/19 09:30:47;;;;;;;13.68;11.40;;;18.90;99.90;;;;;;5093614;28;20114;-80
2021/08/19 09:33:15;;;;;;;14.82;10.88;;;18.90;99.90;;;;;;5095251;28;20027;-83
2021/08/19 09:35:41;;;;;;;13.73;10.45;;;18.90;99.90;;;;;;5094096;28;20406;-78
2021/08/19 09:38:12;;;;;;;13.13;10.68;;;19.00;99.90;;;;;;5095237;28;20028;-73
2021/08/19 09:40:38;;;;;;;12.50;9.85;;;19.20;99.90;;;;;;5095157;28;20108;-81
2021/08/19 09:43:04;;;;;;;15.52;11.10;;;19.30;99.90;;;;;;5094113;28;20027;-74
2021/08/19 09:45:29;;;;;;;15.80;10.90;;;19.40;99.90;;;;;;5093042;28;20016;-73
2021/08/19 09:48:10;;;;;;;13.55;11.15;;;19.40;99.90;;;;;;5094499;28;20028;-76
2021/08/19 09:50:36;;;;;;;12.82;10.43;;;19.50;99.90;;;;;;5094924;28;20535;-77
2021/08/19 09:53:22;;;;;;;12.20;9.85;;;19.40;99.90;;;;;;5094442;28;20055;-73
2021/08/19 09:55:49;;;;;;;16.95;11.35;;;19.40;99.90;;;;;;5093826;28;20024;-73
2021/08/19 09:58:31;;;;;;;12.05;10.68;;;19.20;99.90;;;;;;5094683;28;20028;-74
2021/08/19 10:00:57;;;;;;;13.48;10.73;;;19.10;99.90;;;;;;5094152;28;20027;-76
2021/08/19 10:03:24;;;;;;;12.07;9.95;;;19.00;99.90;;;;;;5093981;28;20368;-73
2021/08/19 10:05:51;;;;;;;11.20;8.90;;;19.00;99.90;;;;;;5093081;28;20089;-73
2021/08/19 10:08:16;;;;;;;11.23;9.30;;;19.00;99.90;;;;;;5094554;28;20103;-74
2021/08/19 10:10:44;;;;;;;12.88;9.98;;;19.00;99.90;;;;;;5093328;28;20055;-74
2021/08/19 10:13:15;;;;;;;11.57;9.40;;;19.00;99.90;;;;;;5094238;28;20397;-75
2021/08/19 10:15:41;;;;;;;11.20;8.93;;;19.00;99.90;;;;;;5094255;28;20573;-72
2021/08/19 10:18:08;;;;;;;10.88;8.48;;;19.00;99.90;;;;;;5093563;28;20047;-77
2021/08/19 10:20:42;;;;;;;11.38;9.05;;;19.10;99.90;;;;;;5092966;28;20472;-74
2021/08/19 10:23:10;;;;;;;10.35;9.05;;;19.10;99.90;;;;;;5094147;28;20035;-75
2021/08/19 10:25:36;;;;;;;12.05;9.63;;;19.00;99.90;;;;;;5094143;28;20028;-75
2021/08/19 10:28:21;;;;;;;9.65;8.70;;;18.90;99.90;;;;;;5093879;28;20460;-74
2021/08/19 10:30:49;;;;;;;10.07;9.07;;;18.90;99.90;;;;;;5093064;28;20379;-79
2021/08/19 10:33:42;;;;;;;9.80;8.77;;;18.90;99.90;;;;;;5092878;28;20020;-77
2021/08/19 10:36:10;;;;;;;11.07;8.93;;;18.80;99.90;;;;;;5092609;28;20032;-75
2021/08/19 10:38:37;;;;;;;10.25;9.18;;;18.70;99.90;;;;;;5093238;28;20036;-82
2021/08/19 10:41:02;;;;;;;11.57;9.35;;;18.70;99.90;;;;;;5093656;28;20024;-74
2021/08/19 10:43:28;;;;;;;11.75;8.52;;;18.70;99.90;;;;;;5092727;28;20464;-76
2021/08/19 10:46:17;;;;;;;12.88;9.95;;;18.70;99.90;;;;;;5091726;28;20024;-74
2021/08/19 10:48:51;;;;;;;13.23;9.57;;;18.70;99.90;;;;;;5092442;28;20016;-79
2021/08/19 10:51:18;;;;;;;11.35;9.23;;;18.80;99.90;;;;;;5093036;28;20020;-82
2021/08/19 10:53:44;;;;;;;10.07;9.07;;;18.80;99.90;;;;;;5093550;28;20028;-75
2021/08/19 10:56:09;;;;;;;10.80;9.68;;;18.80;99.90;;;;;;5092438;28;20020;-82
2021/08/19 10:58:37;;;;;;;15.05;10.43;;;18.70;99.90;;;;;;5091531;28;20058;-77
2021/08/19 11:01:18;;;;;;;12.00;9.80;;;18.70;99.90;;;;;;5093207;28;20437;-77
2021/08/19 11:03:48;;;;;;;10.60;9.50;;;18.80;99.90;;;;;;5088167;28;20427;-81
2021/08/19 11:06:45;;;;;;;9.90;8.90;;;18.80;99.90;;;;;;5073715;28;20024;-75
2021/08/19 11:09:15;;;;;;;14.32;11.35;;;18.80;99.90;;;;;;5081748;28;20064;-78
2021/08/19 11:11:41;;;;;;;11.30;10.00;;;18.80;99.90;;;;;;5106655;28;20041;-72
2021/08/19 11:14:09;;;;;;;11.32;10.10;;;18.70;99.90;;;;;;5095267;28;20365;-75
2021/08/19 11:16:37;;;;;;;11.63;10.32;;;18.70;99.90;;;;;;5088652;28;20029;-77
2021/08/19 11:19:13;;;;;;;10.43;9.32;;;18.70;99.90;;;;;;5090172;28;20143;-79
2021/08/19 11:21:38;;;;;;;11.65;10.10;;;18.70;99.90;;;;;;5092419;28;20460;-79
2021/08/19 11:24:07;;;;;;;11.63;10.43;;;18.70;99.90;;;;;;5088024;28;20035;-83
2021/08/19 11:26:33;;;;;;;14.50;11.20;;;18.70;99.90;;;;;;5091533;28;20072;-78
2021/08/19 11:28:58;;;;;;;15.57;10.52;;;18.80;99.90;;;;;;5092770;28;20028;-81
2021/08/19 11:31:25;;;;;;;14.45;10.57;;;18.90;99.90;;;;;;5091909;28;20054;-84
2021/08/19 11:34:02;;;;;;;11.65;10.32;;;19.00;99.90;;;;;;5092397;28;20024;-75
2021/08/19 11:36:29;;;;;;;12.88;10.60;;;19.30;99.90;;;;;;5088251;28;20020;-76
2021/08/19 11:39:00;;;;;;;13.02;11.45;;;19.50;99.90;;;;;;5089248;28;20032;-74
2021/08/19 11:41:26;;;;;;;16.08;10.77;;;19.50;99.90;;;;;;5092169;28;20020;-77
2021/08/19 11:44:04;;;;;;;11.13;10.00;;;19.50;99.90;;;;;;5080860;28;20112;-75
2021/08/19 11:46:30;;;;;;;12.25;10.30;;;19.70;99.90;;;;;;5081576;28;20028;-76
2021/08/19 11:48:57;;;;;;;11.68;10.48;;;19.80;99.90;;;;;;5075157;28;20067;-78
2021/08/19 11:51:34;;;;;;;12.30;10.80;;;19.90;99.90;;;;;;5071771;28;20016;-75
2021/08/19 11:54:07;;;;;;;12.95;10.13;;;19.80;99.90;;;;;;5077185;28;20048;-80
2021/08/19 11:56:38;;;;;;;11.80;9.63;;;19.80;99.90;;;;;;5080802;28;20024;-81
2021/08/19 11:59:11;;;;;;;10.70;9.55;;;20.00;99.90;;;;;;5080991;28;20032;-79
2021/08/19 12:01:48;;;;;;;11.13;9.18;;;20.10;99.90;;;;;;5092645;28;20048;-77
2021/08/19 12:04:14;;;;;;;11.23;9.85;;;20.30;99.90;;;;;;5098773;28;20036;-81
2021/08/19 12:06:40;;;;;;;10.35;9.27;;;20.30;99.90;;;;;;5081546;28;20073;-86
2021/08/19 12:09:10;;;;;;;11.45;10.00;;;20.20;99.90;;;;;;5074577;28;20025;-88
2021/08/19 12:11:40;;;;;;;10.13;9.10;;;20.10;99.90;;;;;;5075199;28;20369;-75
2021/08/19 12:14:09;;;;;;;9.18;8.32;;;20.00;99.90;;;;;;5086254;28;20031;-78
2021/08/19 12:16:35;;;;;;;11.85;9.77;;;19.90;99.90;;;;;;5091475;28;20030;-76
2021/08/19 12:19:04;;;;;;;9.95;8.60;;;19.90;99.90;;;;;;5083396;28;20114;-76
2021/08/19 12:21:30;;;;;;;10.27;7.50;;;19.90;99.90;;;;;;5095482;28;20016;-79
2021/08/19 12:24:18;;;;;;;10.60;9.40;;;20.00;99.90;;;;;;5094181;28;20114;-82
2021/08/19 12:26:59;;;;;;;10.68;9.13;;;20.20;99.90;;;;;;5095646;28;20032;-85
2021/08/19 12:29:24;;;;;;;11.23;9.70;;;20.40;99.90;;;;;;5095118;28;20032;-86
2021/08/19 12:31:51;;;;;;;10.30;9.20;;;20.30;99.90;;;;;;5095145;28;20016;-79
2021/08/19 12:34:21;;;;;;;10.30;8.60;;;20.10;99.90;;;;;;5097160;28;20131;-86